Anatone, WA (99401)

9:20 PM PDT on July 24, 2016 (GMT -0700)
Montgomery Ridge Road | | Change Station

Elev 3300 ft 46.12 °N, 117.01 °W | Updated 22 seconds ago

Clear
Clear
72.4 °F
Feels Like 77 °F
N
1.6
Wind Variable Wind from North
Gusts 2.5 mph

Today
High -- | Low -- °F
--% Chance of Precip.
Yesterday
High -- | Low -- °F
Precip. -- in
Pressure 29.91 in
Visibility 10.0 miles
Clouds Clear
Heat Index 77 °F
Dew Point 42 °F
Humidity 34%
Rainfall in
Snow Depth Not available.
5:21 AM 8:27 PM
Waning Gibbous, 70% visible
METAR KLWS 250356Z 00000KT 10SM CLR 29/06 A2994 RMK AO2 SLP128 T02940061 $
Pressure 29.91 in
Visibility 10.0 miles
Clouds Clear
Heat Index 77 °F
Dew Point 42 °F
Humidity 34%
Rainfall in
Snow Depth Not available.
5:21 AM 8:27 PM
Waning Gibbous, 70% visible
METAR KLWS 250356Z 00000KT 10SM CLR 29/06 A2994 RMK AO2 SLP128 T02940061 $

10-Day Weather Forecast

Almanac

Astronomy

Jul. 24, 2016 Rise Set
Actual Time
Civil Twilight
Nautical Twilight
Astronomical Twilight
Moon
Length of Visible Light
Length of Day
Tomorrow will be .
, % of the Moon is Illuminated

Today's Extremes

State Highs State Lows

Community

WunderPhotos

Upload Photos

1,927,264 photos uploaded!

WunderBlog® & News

Nearby

Air Quality

  Air Quality AQ Index Pollutant
Not available.

Snow Depth

Station Depth Elevation

Earthquake Activity

City Distance Mag. Time & Date
Minimum magnitude displayed is 2.5.

Coastal Water Temperatures

Place Temperature

Stations

Nearby Weather Stations

Station Location Temp. Windchill Dew Point Humidity Wind Precip. Elev Updated Type
                   

Watches & Warnings

There are currently no watches in effect.